Grand Princess — ZCBU5 — position and weather

sailwx.info

Track history (hours):
 
Tides and Currents Weather Stations Pressure Air Temp Water Temp Dewpoint Dewpoint Depression Visibility Wind Speed Wind Dir Waves Ship Positions

Grand Princess

Operator: Princess Cruises

Last reported at 2017-Jun-19 09:14 UTC. Time now 2017-Jun-22 16:38 UTC.
Position N 46°35' W 127°26'.

Length 289.5 m; beam 36 m; draft 8.5 m.

Type: Ship. MMSI: 310327000.

Date/timePositionNaut miles runAvg speedWind from/ knotsBaromVisibWave heightAir tempDewpointWater temp
2017-Jun-19 09:14N 46°35' W 127°26'5721.3
2017-Jun-19 06:32N 45°40' W 127°01'221.1
2017-Jun-19 06:26N 45°38' W 126°60'921.1
2017-Jun-19 06:00N 45°30' W 126°56'1020.9
2017-Jun-19 05:30N 45°20' W 126°52'1120.8
2017-Jun-19 05:00N 45°09' W 126°47'1021.1
2017-Jun-19 04:30N 44°60' W 126°43'1121.0
2017-Jun-19 03:59N 44°49' W 126°38'1020.9
2017-Jun-19 03:30N 44°39' W 126°34'1121.0
2017-Jun-19 02:59N 44°29' W 126°29'2120.9
2017-Jun-19 02:00N 44°09' W 126°20'1121.0
2017-Jun-19 01:30N 43°59' W 126°16'1120.7
2017-Jun-19 00:57N 43°49' W 126°11'1021.0
2017-Jun-19 00:29N 43°39' W 126°07'1521.0
2017-Jun-18 23:47N 43°25' W 126°01'920.8
2017-Jun-18 23:22N 43°17' W 125°58'820.7
2017-Jun-18 23:00N 43°10' W 125°54'27217.8
2017-Jun-18 07:46N 38°53' W 123°58'518.0
2017-Jun-18 07:29N 38°49' W 123°54'917.9
2017-Jun-18 07:01N 38°42' W 123°48'917.4
2017-Jun-18 06:31N 38°34' W 123°42'817.0
2017-Jun-18 06:01N 38°27' W 123°36'815.4
2017-Jun-18 05:31N 38°21' W 123°30'715.0
2017-Jun-18 05:01N 38°15' W 123°25'611.9
2017-Jun-18 04:30N 38°10' W 123°21'5 9.6
2017-Jun-18 04:00N 38°06' W 123°17'5 9.7
2017-Jun-18 03:30N 38°02' W 123°13'5 9.8
2017-Jun-18 03:00N 37°59' W 123°09'5 9.9
2017-Jun-18 02:30N 37°56' W 123°03'510.4
2017-Jun-18 02:00N 37°54' W 122°58'510.4
2017-Jun-18 01:30N 37°51' W 122°52'510.1
2017-Jun-18 01:00N 37°48' W 122°46'510.9
2017-Jun-18 00:30N 37°46' W 122°40'612.3
2017-Jun-18 00:00N 37°48' W 122°33'611.7
2017-Jun-17 23:30N 37°49' W 122°25'1 2.5
2017-Jun-17 22:58N 37°48' W 122°24'0 0.0
2017-Jun-17 22:28N 37°48' W 122°24'0 0.0
2017-Jun-17 21:58N 37°48' W 122°24'0 0.0
2017-Jun-17 21:28N 37°48' W 122°24'0 0.0
2017-Jun-17 21:00N 37°48' W 122°24'0 0.0
2017-Jun-17 20:30N 37°48' W 122°24'0 0.0
2017-Jun-17 20:00N 37°48' W 122°24'0 0.0
2017-Jun-17 19:30N 37°48' W 122°24'0 0.0
2017-Jun-17 19:00N 37°48' W 122°24'0 0.0
2017-Jun-17 18:29N 37°48' W 122°24'0 0.0
2017-Jun-17 17:59N 37°48' W 122°24'0 0.0
2017-Jun-17 17:29N 37°48' W 122°24'0 0.0
2017-Jun-17 16:59N 37°48' W 122°24'0 0.0
2017-Jun-17 16:29N 37°48' W 122°24'0 0.0
2017-Jun-17 15:58N 37°48' W 122°24'0 0.0
2017-Jun-17 15:28N 37°48' W 122°24'0 0.0
2017-Jun-17 14:58N 37°48' W 122°24'0 0.0
2017-Jun-17 14:00N 37°48' W 122°24'0 0.0
2017-Jun-17 13:31N 37°48' W 122°24'1 2.9
2017-Jun-17 13:00N 37°49' W 122°26'714.6
2017-Jun-17 12:30N 37°47' W 122°35'612.6
2017-Jun-17 12:00N 37°46' W 122°42'5 9.5
2017-Jun-17 11:30N 37°47' W 122°48'510.2
2017-Jun-17 11:00N 37°50' W 122°54'510.1
2017-Jun-17 10:30N 37°52' W 122°59'510.1
2017-Jun-17 10:00N 37°55' W 123°05'4303.8
2017-Jun-17 10:00N 37°54' W 123°00'918.2 320 / 341014.310.8 11.711.310.0
2017-Jun-17 09:30N 37°57' W 123°10'510.1
2017-Jun-17 09:00N 38°01' W 123°15'510.2
2017-Jun-17 08:30N 38°05' W 123°19'611.9
2017-Jun-17 08:00N 38°10' W 123°24'1121.7
2017-Jun-17 07:30N 38°19' W 123°31'1121.9
2017-Jun-17 07:00N 38°28' W 123°39'1121.7
2017-Jun-17 06:30N 38°36' W 123°47'1121.6
2017-Jun-17 06:00N 38°45' W 123°55'38421.3
2017-Jun-16 12:00N 45°06' W 125°06'1420.8
2017-Jun-16 11:20N 45°19' W 125°07'720.6
2017-Jun-16 11:00N 45°26' W 125°08'1020.4
2017-Jun-16 10:30N 45°36' W 125°09'1020.4
2017-Jun-16 10:00N 45°46' W 125°09'1020.4
2017-Jun-16 09:30N 45°57' W 125°10'1020.5
2017-Jun-16 09:00N 46°07' W 125°10'1020.4
2017-Jun-16 08:30N 46°17' W 125°11'1020.2
2017-Jun-16 08:00N 46°27' W 125°12'1020.0
2017-Jun-16 07:30N 46°37' W 125°13'1020.0
2017-Jun-16 07:00N 46°47' W 125°14'1019.9
2017-Jun-16 06:30N 46°57' W 125°14'1020.0
2017-Jun-16 06:00N 47°07' W 125°15'1220.0
2017-Jun-16 05:24N 47°19' W 125°16'5419.3
2017-Jun-16 02:37N 48°13' W 125°13'216.1
2017-Jun-16 02:30N 48°15' W 125°12'1018.5
2017-Jun-16 01:57N 48°24' W 125°07'817.7
2017-Jun-16 01:30N 48°31' W 125°00'1018.2
2017-Jun-16 00:59N 48°31' W 124°46'1019.0
2017-Jun-16 00:26N 48°27' W 124°31'819.6
2017-Jun-16 00:00N 48°24' W 124°20'1019.5
2017-Jun-15 23:30N 48°20' W 124°06'1120.1
2017-Jun-15 22:57N 48°17' W 123°50'921.1
2017-Jun-15 22:30N 48°16' W 123°36'917.3
2017-Jun-15 22:00N 48°21' W 123°26'4 8.5
2017-Jun-15 21:30N 48°25' W 123°24'0 0.8
2017-Jun-15 21:00N 48°25' W 123°23'0 0.0
2017-Jun-15 20:27N 48°25' W 123°23'0 0.0
2017-Jun-15 20:00N 48°25' W 123°23'0 0.0
2017-Jun-15 19:30N 48°25' W 123°23'0 0.0
2017-Jun-15 19:00N 48°25' W 123°23'0 0.0
2017-Jun-15 18:29N 48°25' W 123°23'0 0.0
2017-Jun-15 17:59N 48°25' W 123°23'0 0.0
2017-Jun-15 17:29N 48°25' W 123°23'0 0.0
2017-Jun-15 16:59N 48°25' W 123°23'0 0.0
2017-Jun-15 16:25N 48°25' W 123°23'0 0.0
2017-Jun-15 15:58N 48°25' W 123°23'0 0.0
2017-Jun-15 15:28N 48°25' W 123°23'0 0.0
2017-Jun-15 14:58N 48°25' W 123°23'0 0.0
2017-Jun-15 14:00N 48°25' W 123°23'1 1.9
2017-Jun-15 13:31N 48°24' W 123°24'510.1
2017-Jun-15 13:00N 48°19' W 123°25'816.6
2017-Jun-15 12:30N 48°14' W 123°34'918.5
2017-Jun-15 12:00N 48°14' W 123°48'919.2
2017-Jun-15 11:30N 48°16' W 124°02'1019.5
2017-Jun-15 11:00N 48°20' W 124°15'919.0
2017-Jun-15 10:30N 48°24' W 124°28'1019.2
2017-Jun-15 10:00N 48°28' W 124°41'918.7
2017-Jun-15 09:30N 48°29' W 124°55'918.1
2017-Jun-15 09:00N 48°29' W 125°09'917.8
2017-Jun-15 08:30N 48°32' W 125°21'918.4
2017-Jun-15 08:00N 48°37' W 125°33'918.2
2017-Jun-15 07:30N 48°42' W 125°45'918.0
2017-Jun-15 07:00N 48°47' W 125°56'918.0
2017-Jun-15 06:30N 48°52' W 126°07'917.8
2017-Jun-15 06:00N 48°57' W 126°18'917.8
2017-Jun-15 05:30N 49°03' W 126°29'918.1
2017-Jun-15 05:00N 49°09' W 126°40'917.9
2017-Jun-15 04:30N 49°14' W 126°50'917.8
2017-Jun-15 04:00N 49°20' W 127°01'918.1
2017-Jun-15 03:30N 49°26' W 127°12'9 6.0
2017-Jun-15 02:00N 49°30' W 127°24'26418.8 130 / 361013.4 2.2 12.010.112.0
2017-Jun-14 12:00N 52°30' W 132°30'22020.0 100 / 321008.1 5.4 9.0 6.911.0
2017-Jun-14 01:00N 56°00' W 134°24'   140 / 81014.7 0.3 10.0 5.6 9.0
2017-Jun-11 13:00N 57°48' W 133°54'2524.8 160 / 41015.3 0.1 9.0 1.8 8.0
2017-Jun-11 12:00N 57°24' W 133°42'   270 / 251015.310.8 9.0 1.8 8.0
Track history (hours):
 
Tides and Currents Weather Stations Pressure Air Temp Water Temp Dewpoint Dewpoint Depression Visibility Wind Speed Wind Dir Waves Ship Positions

Grand Princess

Operator: Princess Cruises

Last reported at 2017-Jun-19 09:14 UTC. Time now 2017-Jun-22 16:38 UTC.
Position N 46°35' W 127°26'.

Length 289.5 m; beam 36 m; draft 8.5 m.

Type: Ship. MMSI: 310327000.

Date/timePositionNaut miles runAvg speedWind from/ knotsBaromVisibWave heightAir tempDewpointWater temp
2017-Jun-19 09:14N 46°35' W 127°26'5721.3
2017-Jun-19 06:32N 45°40' W 127°01'221.1
2017-Jun-19 06:26N 45°38' W 126°60'921.1
2017-Jun-19 06:00N 45°30' W 126°56'1020.9
2017-Jun-19 05:30N 45°20' W 126°52'1120.8
2017-Jun-19 05:00N 45°09' W 126°47'1021.1
2017-Jun-19 04:30N 44°60' W 126°43'1121.0
2017-Jun-19 03:59N 44°49' W 126°38'1020.9
2017-Jun-19 03:30N 44°39' W 126°34'1121.0
2017-Jun-19 02:59N 44°29' W 126°29'2120.9
2017-Jun-19 02:00N 44°09' W 126°20'1121.0
2017-Jun-19 01:30N 43°59' W 126°16'1120.7
2017-Jun-19 00:57N 43°49' W 126°11'1021.0
2017-Jun-19 00:29N 43°39' W 126°07'1521.0
2017-Jun-18 23:47N 43°25' W 126°01'920.8
2017-Jun-18 23:22N 43°17' W 125°58'820.7
2017-Jun-18 23:00N 43°10' W 125°54'27217.8
2017-Jun-18 07:46N 38°53' W 123°58'518.0
2017-Jun-18 07:29N 38°49' W 123°54'917.9
2017-Jun-18 07:01N 38°42' W 123°48'917.4
2017-Jun-18 06:31N 38°34' W 123°42'817.0
2017-Jun-18 06:01N 38°27' W 123°36'815.4
2017-Jun-18 05:31N 38°21' W 123°30'715.0
2017-Jun-18 05:01N 38°15' W 123°25'611.9
2017-Jun-18 04:30N 38°10' W 123°21'5 9.6
2017-Jun-18 04:00N 38°06' W 123°17'5 9.7
2017-Jun-18 03:30N 38°02' W 123°13'5 9.8
2017-Jun-18 03:00N 37°59' W 123°09'5 9.9
2017-Jun-18 02:30N 37°56' W 123°03'510.4
2017-Jun-18 02:00N 37°54' W 122°58'510.4
2017-Jun-18 01:30N 37°51' W 122°52'510.1
2017-Jun-18 01:00N 37°48' W 122°46'510.9
2017-Jun-18 00:30N 37°46' W 122°40'612.3
2017-Jun-18 00:00N 37°48' W 122°33'611.7
2017-Jun-17 23:30N 37°49' W 122°25'1 2.5
2017-Jun-17 22:58N 37°48' W 122°24'0 0.0
2017-Jun-17 22:28N 37°48' W 122°24'0 0.0
2017-Jun-17 21:58N 37°48' W 122°24'0 0.0
2017-Jun-17 21:28N 37°48' W 122°24'0 0.0
2017-Jun-17 21:00N 37°48' W 122°24'0 0.0
2017-Jun-17 20:30N 37°48' W 122°24'0 0.0
2017-Jun-17 20:00N 37°48' W 122°24'0 0.0
2017-Jun-17 19:30N 37°48' W 122°24'0 0.0
2017-Jun-17 19:00N 37°48' W 122°24'0 0.0
2017-Jun-17 18:29N 37°48' W 122°24'0 0.0
2017-Jun-17 17:59N 37°48' W 122°24'0 0.0
2017-Jun-17 17:29N 37°48' W 122°24'0 0.0
2017-Jun-17 16:59N 37°48' W 122°24'0 0.0
2017-Jun-17 16:29N 37°48' W 122°24'0 0.0
2017-Jun-17 15:58N 37°48' W 122°24'0 0.0
2017-Jun-17 15:28N 37°48' W 122°24'0 0.0
2017-Jun-17 14:58N 37°48' W 122°24'0 0.0
2017-Jun-17 14:00N 37°48' W 122°24'0 0.0
2017-Jun-17 13:31N 37°48' W 122°24'1 2.9
2017-Jun-17 13:00N 37°49' W 122°26'714.6
2017-Jun-17 12:30N 37°47' W 122°35'612.6
2017-Jun-17 12:00N 37°46' W 122°42'5 9.5
2017-Jun-17 11:30N 37°47' W 122°48'510.2
2017-Jun-17 11:00N 37°50' W 122°54'510.1
2017-Jun-17 10:30N 37°52' W 122°59'510.1
2017-Jun-17 10:00N 37°55' W 123°05'4303.8
2017-Jun-17 10:00N 37°54' W 123°00'918.2 320 / 341014.310.8 11.711.310.0
2017-Jun-17 09:30N 37°57' W 123°10'510.1
2017-Jun-17 09:00N 38°01' W 123°15'510.2
2017-Jun-17 08:30N 38°05' W 123°19'611.9
2017-Jun-17 08:00N 38°10' W 123°24'1121.7
2017-Jun-17 07:30N 38°19' W 123°31'1121.9
2017-Jun-17 07:00N 38°28' W 123°39'1121.7
2017-Jun-17 06:30N 38°36' W 123°47'1121.6
2017-Jun-17 06:00N 38°45' W 123°55'38421.3
2017-Jun-16 12:00N 45°06' W 125°06'1420.8
2017-Jun-16 11:20N 45°19' W 125°07'720.6
2017-Jun-16 11:00N 45°26' W 125°08'1020.4
2017-Jun-16 10:30N 45°36' W 125°09'1020.4
2017-Jun-16 10:00N 45°46' W 125°09'1020.4
2017-Jun-16 09:30N 45°57' W 125°10'1020.5
2017-Jun-16 09:00N 46°07' W 125°10'1020.4
2017-Jun-16 08:30N 46°17' W 125°11'1020.2
2017-Jun-16 08:00N 46°27' W 125°12'1020.0
2017-Jun-16 07:30N 46°37' W 125°13'1020.0
2017-Jun-16 07:00N 46°47' W 125°14'1019.9
2017-Jun-16 06:30N 46°57' W 125°14'1020.0
2017-Jun-16 06:00N 47°07' W 125°15'1220.0
2017-Jun-16 05:24N 47°19' W 125°16'5419.3
2017-Jun-16 02:37N 48°13' W 125°13'216.1
2017-Jun-16 02:30N 48°15' W 125°12'1018.5
2017-Jun-16 01:57N 48°24' W 125°07'817.7
2017-Jun-16 01:30N 48°31' W 125°00'1018.2
2017-Jun-16 00:59N 48°31' W 124°46'1019.0
2017-Jun-16 00:26N 48°27' W 124°31'819.6
2017-Jun-16 00:00N 48°24' W 124°20'1019.5
2017-Jun-15 23:30N 48°20' W 124°06'1120.1
2017-Jun-15 22:57N 48°17' W 123°50'921.1
2017-Jun-15 22:30N 48°16' W 123°36'917.3
2017-Jun-15 22:00N 48°21' W 123°26'4 8.5
2017-Jun-15 21:30N 48°25' W 123°24'0 0.8
2017-Jun-15 21:00N 48°25' W 123°23'0 0.0
2017-Jun-15 20:27N 48°25' W 123°23'0 0.0
2017-Jun-15 20:00N 48°25' W 123°23'0 0.0
2017-Jun-15 19:30N 48°25' W 123°23'0 0.0
2017-Jun-15 19:00N 48°25' W 123°23'0 0.0
2017-Jun-15 18:29N 48°25' W 123°23'0 0.0
2017-Jun-15 17:59N 48°25' W 123°23'0 0.0
2017-Jun-15 17:29N 48°25' W 123°23'0 0.0
2017-Jun-15 16:59N 48°25' W 123°23'0 0.0
2017-Jun-15 16:25N 48°25' W 123°23'0 0.0
2017-Jun-15 15:58N 48°25' W 123°23'0 0.0
2017-Jun-15 15:28N 48°25' W 123°23'0 0.0
2017-Jun-15 14:58N 48°25' W 123°23'0 0.0
2017-Jun-15 14:00N 48°25' W 123°23'1 1.9
2017-Jun-15 13:31N 48°24' W 123°24'510.1
2017-Jun-15 13:00N 48°19' W 123°25'816.6
2017-Jun-15 12:30N 48°14' W 123°34'918.5
2017-Jun-15 12:00N 48°14' W 123°48'919.2
2017-Jun-15 11:30N 48°16' W 124°02'1019.5
2017-Jun-15 11:00N 48°20' W 124°15'919.0
2017-Jun-15 10:30N 48°24' W 124°28'1019.2
2017-Jun-15 10:00N 48°28' W 124°41'918.7
2017-Jun-15 09:30N 48°29' W 124°55'918.1
2017-Jun-15 09:00N 48°29' W 125°09'917.8
2017-Jun-15 08:30N 48°32' W 125°21'918.4
2017-Jun-15 08:00N 48°37' W 125°33'918.2
2017-Jun-15 07:30N 48°42' W 125°45'918.0
2017-Jun-15 07:00N 48°47' W 125°56'918.0
2017-Jun-15 06:30N 48°52' W 126°07'917.8
2017-Jun-15 06:00N 48°57' W 126°18'917.8
2017-Jun-15 05:30N 49°03' W 126°29'918.1
2017-Jun-15 05:00N 49°09' W 126°40'917.9
2017-Jun-15 04:30N 49°14' W 126°50'917.8
2017-Jun-15 04:00N 49°20' W 127°01'918.1
2017-Jun-15 03:30N 49°26' W 127°12'9 6.0
2017-Jun-15 02:00N 49°30' W 127°24'26418.8 130 / 361013.4 2.2 12.010.112.0
2017-Jun-14 12:00N 52°30' W 132°30'22020.0 100 / 321008.1 5.4 9.0 6.911.0
2017-Jun-14 01:00N 56°00' W 134°24'   140 / 81014.7 0.3 10.0 5.6 9.0
2017-Jun-11 13:00N 57°48' W 133°54'2524.8 160 / 41015.3 0.1 9.0 1.8 8.0
2017-Jun-11 12:00N 57°24' W 133°42'   270 / 251015.310.8 9.0 1.8 8.0

Dump ship's entire track history